sensor_id;sensor_type;location;lat;lon;timestamp;pressure;altitude;pressure_sealevel;temperature;humidity
65534;BME280;53640;55.838;37.184;2023-06-26T00:00:04;99052.63;;;18.62;38.13
65534;BME280;53640;55.838;37.184;2023-06-26T00:02:33;99054.25;;;18.58;38.47
65534;BME280;53640;55.838;37.184;2023-06-26T00:05:01;99049.88;;;18.57;38.28
65534;BME280;53640;55.838;37.184;2023-06-26T00:07:33;99031.81;;;18.41;38.43
65534;BME280;53640;55.838;37.184;2023-06-26T00:10:02;99042.75;;;18.46;38.58
65534;BME280;53640;55.838;37.184;2023-06-26T00:12:32;99048.25;;;18.51;38.56
65534;BME280;53640;55.838;37.184;2023-06-26T00:15:00;98990.22;;;18.08;38.46
65534;BME280;53640;55.838;37.184;2023-06-26T00:17:33;99043.06;;;18.44;38.55
65534;BME280;53640;55.838;37.184;2023-06-26T00:20:06;99063.56;;;18.57;38.38
65534;BME280;53640;55.838;37.184;2023-06-26T00:22:39;99027.97;;;18.42;38.94
65534;BME280;53640;55.838;37.184;2023-06-26T00:25:09;99021.44;;;18.33;38.76
65534;BME280;53640;55.838;37.184;2023-06-26T00:27:35;99022.50;;;18.32;38.76
65534;BME280;53640;55.838;37.184;2023-06-26T00:30:02;99047.16;;;18.47;38.67
65534;BME280;53640;55.838;37.184;2023-06-26T00:32:31;99043.31;;;18.48;38.75
65534;BME280;53640;55.838;37.184;2023-06-26T00:34:58;99051.25;;;18.49;39.14
65534;BME280;53640;55.838;37.184;2023-06-26T00:37:24;98996.28;;;18.10;39.18
65534;BME280;53640;55.838;37.184;2023-06-26T00:39:55;99053.47;;;18.47;38.95
65534;BME280;53640;55.838;37.184;2023-06-26T00:42:24;99021.44;;;18.33;39.09
65534;BME280;53640;55.838;37.184;2023-06-26T00:44:50;99019.78;;;18.26;39.29
65534;BME280;53640;55.838;37.184;2023-06-26T00:47:17;99037.31;;;18.41;39.15
65534;BME280;53640;55.838;37.184;2023-06-26T00:49:44;98998.44;;;18.18;39.17
65534;BME280;53640;55.838;37.184;2023-06-26T00:52:11;99047.16;;;18.42;39.17
65534;BME280;53640;55.838;37.184;2023-06-26T00:54:38;99015.41;;;18.25;38.74
65534;BME280;53640;55.838;37.184;2023-06-26T00:57:06;98972.19;;;17.97;38.64
65534;BME280;53640;55.838;37.184;2023-06-26T00:59:36;99038.69;;;18.43;39.13
65534;BME280;53640;55.838;37.184;2023-06-26T01:02:03;99009.94;;;18.25;39.23
65534;BME280;53640;55.838;37.184;2023-06-26T01:04:30;99009.66;;;18.17;40.20
65534;BME280;53640;55.838;37.184;2023-06-26T01:06:59;99013.78;;;18.19;40.76
65534;BME280;53640;55.838;37.184;2023-06-26T01:09:28;99017.63;;;18.13;41.13
65534;BME280;53640;55.838;37.184;2023-06-26T01:11:57;99010.50;;;17.97;41.54
65534;BME280;53640;55.838;37.184;2023-06-26T01:14:24;98997.63;;;17.82;41.62
65534;BME280;53640;55.838;37.184;2023-06-26T01:16:52;99018.16;;;17.85;41.98
65534;BME280;53640;55.838;37.184;2023-06-26T01:19:23;99001.19;;;17.67;42.02
65534;BME280;53640;55.838;37.184;2023-06-26T01:22:17;99047.72;;;17.83;42.95
65534;BME280;53640;55.838;37.184;2023-06-26T01:25:01;99046.34;;;17.75;43.26
65534;BME280;53640;55.838;37.184;2023-06-26T01:27:33;99006.38;;;17.38;43.16
65534;BME280;53640;55.838;37.184;2023-06-26T01:30:02;99044.72;;;17.59;43.54
65534;BME280;53640;55.838;37.184;2023-06-26T01:32:35;99015.94;;;17.36;43.64
65534;BME280;53640;55.838;37.184;2023-06-26T01:35:04;99039.22;;;17.43;43.43
65534;BME280;53640;55.838;37.184;2023-06-26T01:37:32;99023.59;;;17.28;43.51
65534;BME280;53640;55.838;37.184;2023-06-26T01:39:59;99032.06;;;17.37;43.77
65534;BME280;53640;55.838;37.184;2023-06-26T01:42:25;99036.72;;;17.32;44.13
65534;BME280;53640;55.838;37.184;2023-06-26T01:44:55;99045.22;;;17.35;43.74
65534;BME280;53640;55.838;37.184;2023-06-26T01:47:24;99009.03;;;17.13;44.39
65534;BME280;53640;55.838;37.184;2023-06-26T01:50:00;99017.47;;;17.06;43.79
65534;BME280;53640;55.838;37.184;2023-06-26T01:52:53;99025.97;;;17.10;44.36
65534;BME280;53640;55.838;37.184;2023-06-26T01:55:40;99050.66;;;17.20;44.42
65534;BME280;53640;55.838;37.184;2023-06-26T01:58:08;99053.88;;;17.12;45.50
65534;BME280;53640;55.838;37.184;2023-06-26T02:00:36;99057.69;;;17.00;46.27
65534;BME280;53640;55.838;37.184;2023-06-26T02:03:16;99050.19;;;16.80;46.31
65534;BME280;53640;55.838;37.184;2023-06-26T02:05:58;98984.88;;;16.26;46.65
65534;BME280;53640;55.838;37.184;2023-06-26T02:08:43;98987.53;;;16.16;47.34
65534;BME280;53640;55.838;37.184;2023-06-26T02:11:12;98991.91;;;16.17;46.75
65534;BME280;53640;55.838;37.184;2023-06-26T02:13:40;99034.16;;;16.42;46.78
65534;BME280;53640;55.838;37.184;2023-06-26T02:16:10;98950.25;;;15.95;46.46
65534;BME280;53640;55.838;37.184;2023-06-26T02:18:38;98957.38;;;15.96;47.04
65534;BME280;53640;55.838;37.184;2023-06-26T02:21:06;98934.06;;;15.83;46.96
65534;BME280;53640;55.838;37.184;2023-06-26T02:23:33;98958.72;;;15.93;47.18
65534;BME280;53640;55.838;37.184;2023-06-26T02:26:00;99041.84;;;16.50;47.48
65534;BME280;53640;55.838;37.184;2023-06-26T02:28:31;99019.09;;;16.34;47.51
65534;BME280;53640;55.838;37.184;2023-06-26T02:30:57;98988.03;;;16.13;47.76
65534;BME280;53640;55.838;37.184;2023-06-26T02:33:24;99006.91;;;16.15;48.25
65534;BME280;53640;55.838;37.184;2023-06-26T02:35:51;98988.22;;;15.96;48.54
65534;BME280;53640;55.838;37.184;2023-06-26T02:38:18;98964.28;;;15.71;49.04
65534;BME280;53640;55.838;37.184;2023-06-26T02:40:46;99048.94;;;16.14;49.63
65534;BME280;53640;55.838;37.184;2023-06-26T02:43:14;98998.66;;;15.72;49.61
65534;BME280;53640;55.838;37.184;2023-06-26T02:45:46;99021.97;;;15.80;49.82
65534;BME280;53640;55.838;37.184;2023-06-26T02:48:12;98981.06;;;15.53;49.77
65534;BME280;53640;55.838;37.184;2023-06-26T02:50:41;99002.41;;;15.61;49.86
65534;BME280;53640;55.838;37.184;2023-06-26T02:53:13;99061.97;;;16.01;50.25
65534;BME280;53640;55.838;37.184;2023-06-26T02:55:44;99043.03;;;15.90;49.89
65534;BME280;53640;55.838;37.184;2023-06-26T02:58:12;99018.97;;;15.81;49.50
65534;BME280;53640;55.838;37.184;2023-06-26T03:00:39;99059.63;;;16.15;49.38
65534;BME280;53640;55.838;37.184;2023-06-26T03:03:12;99040.72;;;16.08;49.52
65534;BME280;53640;55.838;37.184;2023-06-26T03:05:39;99050.13;;;16.28;49.02
65534;BME280;53640;55.838;37.184;2023-06-26T03:08:07;99024.72;;;16.22;49.03
65534;BME280;53640;55.838;37.184;2023-06-26T03:10:34;99053.81;;;16.44;48.54
65534;BME280;53640;55.838;37.184;2023-06-26T03:13:00;99027.81;;;16.36;48.38
65534;BME280;53640;55.838;37.184;2023-06-26T03:15:27;99049.00;;;16.56;48.40
65534;BME280;53640;55.838;37.184;2023-06-26T03:17:54;99049.06;;;16.71;48.05
65534;BME280;53640;55.838;37.184;2023-06-26T03:20:25;99052.41;;;16.83;48.39
65534;BME280;53640;55.838;37.184;2023-06-26T03:22:53;99027.50;;;16.75;48.12
65534;BME280;53640;55.838;37.184;2023-06-26T03:25:21;99039.31;;;16.96;48.00
65534;BME280;53640;55.838;37.184;2023-06-26T03:27:48;99035.53;;;17.02;48.08
65534;BME280;53640;55.838;37.184;2023-06-26T03:30:18;99034.19;;;17.10;47.20
65534;BME280;53640;55.838;37.184;2023-06-26T03:32:47;99048.75;;;17.25;47.12
65534;BME280;53640;55.838;37.184;2023-06-26T03:35:13;99012.06;;;17.16;46.83
65534;BME280;53640;55.838;37.184;2023-06-26T03:37:40;99014.56;;;17.28;47.32
65534;BME280;53640;55.838;37.184;2023-06-26T03:40:08;99014.56;;;17.28;47.37
65534;BME280;53640;55.838;37.184;2023-06-26T03:42:35;99014.31;;;17.35;47.03
65534;BME280;53640;55.838;37.184;2023-06-26T03:45:03;99038.41;;;17.53;46.76
65534;BME280;53640;55.838;37.184;2023-06-26T03:47:31;99017.03;;;17.45;46.98
65534;BME280;53640;55.838;37.184;2023-06-26T03:49:58;99031.31;;;17.62;46.85
65534;BME280;53640;55.838;37.184;2023-06-26T03:52:26;98999.56;;;17.46;47.49
65534;BME280;53640;55.838;37.184;2023-06-26T03:54:53;99017.63;;;17.57;47.46
65534;BME280;53640;55.838;37.184;2023-06-26T03:57:19;98983.66;;;17.43;46.79
65534;BME280;53640;55.838;37.184;2023-06-26T03:59:47;99028.28;;;17.74;46.93
65534;BME280;53640;55.838;37.184;2023-06-26T04:02:16;99014.88;;;17.72;47.31
65534;BME280;53640;55.838;37.184;2023-06-26T04:04:43;99015.97;;;17.87;46.50
65534;BME280;53640;55.838;37.184;2023-06-26T04:07:09;99028.59;;;17.98;46.82
65534;BME280;53640;55.838;37.184;2023-06-26T04:09:37;99035.16;;;18.12;46.10
65534;BME280;53640;55.838;37.184;2023-06-26T04:12:03;99027.47;;;18.09;46.30
65534;BME280;53640;55.838;37.184;2023-06-26T04:14:30;99035.69;;;18.19;45.84
65534;BME280;53640;55.838;37.184;2023-06-26T04:16:56;99027.47;;;18.19;45.87
65534;BME280;53640;55.838;37.184;2023-06-26T04:19:23;99041.69;;;18.37;45.72
65534;BME280;53640;55.838;37.184;2023-06-26T04:21:50;99035.66;;;18.40;45.74
65534;BME280;53640;55.838;37.184;2023-06-26T04:24:16;99003.31;;;18.32;45.46
65534;BME280;53640;55.838;37.184;2023-06-26T04:26:43;99011.28;;;18.43;45.66
65534;BME280;53640;55.838;37.184;2023-06-26T04:29:12;99023.28;;;18.63;45.39
65534;BME280;53640;55.838;37.184;2023-06-26T04:31:39;99039.13;;;18.76;44.60
65534;BME280;53640;55.838;37.184;2023-06-26T04:34:05;99018.59;;;18.73;44.85
65534;BME280;53640;55.838;37.184;2023-06-26T04:36:33;99006.00;;;18.67;43.55
65534;BME280;53640;55.838;37.184;2023-06-26T04:39:04;99013.88;;;18.84;43.16
65534;BME280;53640;55.838;37.184;2023-06-26T04:41:32;99033.53;;;19.07;42.86
65534;BME280;53640;55.838;37.184;2023-06-26T04:43:58;99036.78;;;19.19;42.49
65534;BME280;53640;55.838;37.184;2023-06-26T04:46:25;99020.06;;;19.15;42.08
65534;BME280;53640;55.838;37.184;2023-06-26T04:48:53;99034.19;;;19.38;42.37
65534;BME280;53640;55.838;37.184;2023-06-26T04:51:26;99024.88;;;19.39;41.93
65534;BME280;53640;55.838;37.184;2023-06-26T04:53:54;99014.66;;;19.44;41.21
65534;BME280;53640;55.838;37.184;2023-06-26T04:56:22;99014.34;;;19.56;40.54
65534;BME280;53640;55.838;37.184;2023-06-26T04:58:50;99016.72;;;19.63;39.37
65534;BME280;53640;55.838;37.184;2023-06-26T05:01:19;99024.28;;;19.81;39.85
65534;BME280;53640;55.838;37.184;2023-06-26T05:03:46;98976.34;;;19.63;38.54
65534;BME280;53640;55.838;37.184;2023-06-26T05:06:14;98993.25;;;19.81;37.82
65534;BME280;53640;55.838;37.184;2023-06-26T05:08:41;99029.84;;;20.10;37.81
65534;BME280;53640;55.838;37.184;2023-06-26T05:11:07;99036.00;;;20.26;37.72
65534;BME280;53640;55.838;37.184;2023-06-26T05:13:33;99033.50;;;20.30;37.58
65534;BME280;53640;55.838;37.184;2023-06-26T05:16:00;99014.56;;;20.28;37.69
65534;BME280;53640;55.838;37.184;2023-06-26T05:18:26;99031.47;;;20.40;37.17
65534;BME280;53640;55.838;37.184;2023-06-26T05:20:53;99009.81;;;20.34;37.28
65534;BME280;53640;55.838;37.184;2023-06-26T05:23:19;99023.94;;;20.51;37.47
65534;BME280;53640;55.838;37.184;2023-06-26T05:25:47;99011.63;;;20.43;36.70
65534;BME280;53640;55.838;37.184;2023-06-26T05:28:14;99024.66;;;20.57;36.77
65534;BME280;53640;55.838;37.184;2023-06-26T05:30:42;99033.97;;;20.61;36.36
65534;BME280;53640;55.838;37.184;2023-06-26T05:33:11;98999.28;;;20.41;36.37
65534;BME280;53640;55.838;37.184;2023-06-26T05:35:39;99036.09;;;20.69;35.94
65534;BME280;53640;55.838;37.184;2023-06-26T05:38:05;99027.66;;;20.60;36.11
65534;BME280;53640;55.838;37.184;2023-06-26T05:40:32;99003.31;;;20.49;35.69
65534;BME280;53640;55.838;37.184;2023-06-26T05:43:00;99026.50;;;20.66;35.50
65534;BME280;53640;55.838;37.184;2023-06-26T05:45:27;99027.47;;;20.76;34.73
65534;BME280;53640;55.838;37.184;2023-06-26T05:47:54;99035.41;;;20.82;34.81
65534;BME280;53640;55.838;37.184;2023-06-26T05:50:21;98996.75;;;20.68;35.01
65534;BME280;53640;55.838;37.184;2023-06-26T05:52:47;99015.84;;;20.84;34.75
65534;BME280;53640;55.838;37.184;2023-06-26T05:55:14;99018.47;;;20.94;34.83
65534;BME280;53640;55.838;37.184;2023-06-26T05:57:41;99032.41;;;21.03;34.87
65534;BME280;53640;55.838;37.184;2023-06-26T06:00:08;99025.78;;;21.04;34.82
65534;BME280;53640;55.838;37.184;2023-06-26T06:02:42;99029.00;;;21.11;34.99
65534;BME280;53640;55.838;37.184;2023-06-26T06:05:08;99011.22;;;21.03;34.94
65534;BME280;53640;55.838;37.184;2023-06-26T06:07:35;99029.38;;;21.23;34.79
65534;BME280;53640;55.838;37.184;2023-06-26T06:10:03;98998.50;;;21.07;33.60
65534;BME280;53640;55.838;37.184;2023-06-26T06:12:32;99000.28;;;21.17;33.12
65534;BME280;53640;55.838;37.184;2023-06-26T06:14:58;99010.34;;;21.27;32.37
65534;BME280;53640;55.838;37.184;2023-06-26T06:17:24;98994.19;;;21.20;32.01
65534;BME280;53640;55.838;37.184;2023-06-26T06:19:51;99029.06;;;21.44;31.97
65534;BME280;53640;55.838;37.184;2023-06-26T06:22:17;99020.53;;;21.45;31.09
65534;BME280;53640;55.838;37.184;2023-06-26T06:24:44;98976.69;;;21.30;30.69
65534;BME280;53640;55.838;37.184;2023-06-26T06:27:10;98949.41;;;21.14;30.92
65534;BME280;53640;55.838;37.184;2023-06-26T06:29:36;98994.78;;;21.55;31.05
65534;BME280;53640;55.838;37.184;2023-06-26T06:32:03;99012.94;;;21.75;30.47
65534;BME280;53640;55.838;37.184;2023-06-26T06:34:30;99005.09;;;21.82;30.97
65534;BME280;53640;55.838;37.184;2023-06-26T06:36:57;98988.13;;;21.75;30.77
65534;BME280;53640;55.838;37.184;2023-06-26T06:39:24;98990.91;;;21.88;30.63
65534;BME280;53640;55.838;37.184;2023-06-26T06:41:57;98989.41;;;21.96;30.56
65534;BME280;53640;55.838;37.184;2023-06-26T06:44:24;99007.25;;;22.18;30.43
65534;BME280;53640;55.838;37.184;2023-06-26T06:46:51;98983.03;;;22.15;30.40
65534;BME280;53640;55.838;37.184;2023-06-26T06:49:18;98993.28;;;22.28;30.01
65534;BME280;53640;55.838;37.184;2023-06-26T06:51:44;99011.91;;;22.50;29.99
65534;BME280;53640;55.838;37.184;2023-06-26T06:54:11;98990.13;;;22.48;29.67
65534;BME280;53640;55.838;37.184;2023-06-26T06:56:38;98993.50;;;22.59;29.17
65534;BME280;53640;55.838;37.184;2023-06-26T06:59:04;98995.03;;;22.65;28.06
65534;BME280;53640;55.838;37.184;2023-06-26T07:01:30;98988.38;;;22.66;27.95
65534;BME280;53640;55.838;37.184;2023-06-26T07:03:57;98983.06;;;22.56;27.67
65534;BME280;53640;55.838;37.184;2023-06-26T07:06:24;98976.44;;;22.57;27.92
65534;BME280;53640;55.838;37.184;2023-06-26T07:08:51;98995.13;;;22.74;28.06
65534;BME280;53640;55.838;37.184;2023-06-26T07:11:17;99000.34;;;22.89;28.50
65534;BME280;53640;55.838;37.184;2023-06-26T07:13:43;98964.47;;;22.89;28.27
65534;BME280;53640;55.838;37.184;2023-06-26T07:16:10;98989.91;;;23.14;28.03
65534;BME280;53640;55.838;37.184;2023-06-26T07:18:38;98979.50;;;23.33;27.58
65534;BME280;53640;55.838;37.184;2023-06-26T07:21:06;98982.34;;;23.42;26.67
65534;BME280;53640;55.838;37.184;2023-06-26T07:23:32;98965.22;;;23.53;26.69
65534;BME280;53640;55.838;37.184;2023-06-26T07:25:59;98982.19;;;23.61;26.71
65534;BME280;53640;55.838;37.184;2023-06-26T07:28:27;98959.59;;;23.59;26.77
65534;BME280;53640;55.838;37.184;2023-06-26T07:30:58;98972.38;;;23.77;25.70
65534;BME280;53640;55.838;37.184;2023-06-26T07:33:24;98955.88;;;23.63;26.14
65534;BME280;53640;55.838;37.184;2023-06-26T07:35:50;98983.50;;;23.86;26.26
65534;BME280;53640;55.838;37.184;2023-06-26T07:38:18;98937.81;;;23.66;25.83
65534;BME280;53640;55.838;37.184;2023-06-26T07:40:45;98985.97;;;23.96;25.13
65534;BME280;53640;55.838;37.184;2023-06-26T07:43:12;98937.00;;;23.65;25.67
65534;BME280;53640;55.838;37.184;2023-06-26T07:45:39;98939.34;;;23.72;24.92
65534;BME280;53640;55.838;37.184;2023-06-26T07:48:06;99001.09;;;24.12;23.96
65534;BME280;53640;55.838;37.184;2023-06-26T07:50:35;98901.09;;;23.65;24.17
65534;BME280;53640;55.838;37.184;2023-06-26T07:53:02;98912.84;;;23.71;24.39
65534;BME280;53640;55.838;37.184;2023-06-26T07:55:31;98903.25;;;23.77;24.27
65534;BME280;53640;55.838;37.184;2023-06-26T07:58:00;98946.56;;;24.04;23.08
65534;BME280;53640;55.838;37.184;2023-06-26T08:00:27;98963.63;;;24.06;22.93
65534;BME280;53640;55.838;37.184;2023-06-26T08:02:55;98953.66;;;23.96;23.22
65534;BME280;53640;55.838;37.184;2023-06-26T08:05:22;98953.38;;;24.07;23.75
65534;BME280;53640;55.838;37.184;2023-06-26T08:07:49;98934.34;;;24.05;23.64
65534;BME280;53640;55.838;37.184;2023-06-26T08:10:16;98975.03;;;24.44;23.78
65534;BME280;53640;55.838;37.184;2023-06-26T08:12:43;98945.72;;;24.43;23.47
65534;BME280;53640;55.838;37.184;2023-06-26T08:15:27;98937.44;;;24.52;23.24
65534;BME280;53640;55.838;37.184;2023-06-26T08:17:55;98954.31;;;24.73;23.65
65534;BME280;53640;55.838;37.184;2023-06-26T08:20:22;98960.53;;;25.05;22.96
65534;BME280;53640;55.838;37.184;2023-06-26T08:22:48;98908.06;;;24.73;22.33
65534;BME280;53640;55.838;37.184;2023-06-26T08:25:17;98888.19;;;24.63;22.52
65534;BME280;53640;55.838;37.184;2023-06-26T08:27:47;98963.66;;;25.12;21.73
65534;BME280;53640;55.838;37.184;2023-06-26T08:30:14;98906.63;;;24.76;21.56
65534;BME280;53640;55.838;37.184;2023-06-26T08:32:41;98923.41;;;25.06;21.71
65534;BME280;53640;55.838;37.184;2023-06-26T08:35:08;98910.38;;;25.06;21.55
65534;BME280;53640;55.838;37.184;2023-06-26T08:37:36;98945.75;;;25.44;21.54
65534;BME280;53640;55.838;37.184;2023-06-26T08:40:21;98915.44;;;25.39;21.59
65534;BME280;53640;55.838;37.184;2023-06-26T08:42:52;98870.97;;;25.09;21.91
65534;BME280;53640;55.838;37.184;2023-06-26T08:45:19;98910.53;;;25.44;21.95
65534;BME280;53640;55.838;37.184;2023-06-26T08:47:48;98922.59;;;25.57;21.77
65534;BME280;53640;55.838;37.184;2023-06-26T08:50:18;98980.34;;;26.28;21.43
65534;BME280;53640;55.838;37.184;2023-06-26T08:52:53;98929.72;;;25.93;20.87
65534;BME280;53640;55.838;37.184;2023-06-26T08:55:20;98931.38;;;25.77;21.51
65534;BME280;53640;55.838;37.184;2023-06-26T08:57:51;98968.63;;;26.14;21.78
65534;BME280;53640;55.838;37.184;2023-06-26T09:00:19;98968.28;;;26.24;21.31
65534;BME280;53640;55.838;37.184;2023-06-26T09:02:47;98969.44;;;26.61;21.07
65534;BME280;53640;55.838;37.184;2023-06-26T09:05:13;98934.31;;;26.65;20.72
65534;BME280;53640;55.838;37.184;2023-06-26T09:07:39;98932.34;;;26.96;20.82
65534;BME280;53640;55.838;37.184;2023-06-26T09:10:08;98944.47;;;27.12;20.96
65534;BME280;53640;55.838;37.184;2023-06-26T09:12:35;98950.88;;;27.12;20.94
65534;BME280;53640;55.838;37.184;2023-06-26T09:15:03;98939.06;;;26.95;20.72
65534;BME280;53640;55.838;37.184;2023-06-26T09:17:38;98958.56;;;26.77;20.40
65534;BME280;53640;55.838;37.184;2023-06-26T09:20:08;98957.84;;;26.59;19.79
65534;BME280;53640;55.838;37.184;2023-06-26T09:22:37;98953.41;;;26.37;20.48
65534;BME280;53640;55.838;37.184;2023-06-26T09:25:07;98904.06;;;26.05;21.23
65534;BME280;53640;55.838;37.184;2023-06-26T09:27:36;98943.72;;;26.52;21.15
65534;BME280;53640;55.838;37.184;2023-06-26T09:30:04;98950.59;;;27.05;20.42
65534;BME280;53640;55.838;37.184;2023-06-26T09:32:36;98939.44;;;27.26;20.06
65534;BME280;53640;55.838;37.184;2023-06-26T09:35:03;98942.22;;;27.26;20.61
65534;BME280;53640;55.838;37.184;2023-06-26T09:37:32;98892.41;;;26.79;20.06
65534;BME280;53640;55.838;37.184;2023-06-26T09:39:58;98937.44;;;26.94;19.86
65534;BME280;53640;55.838;37.184;2023-06-26T09:42:31;98887.56;;;26.47;20.00
65534;BME280;53640;55.838;37.184;2023-06-26T09:44:57;98941.91;;;26.77;20.03
65534;BME280;53640;55.838;37.184;2023-06-26T09:47:24;98903.97;;;26.90;19.50
65534;BME280;53640;55.838;37.184;2023-06-26T09:49:51;98910.25;;;27.20;19.59
65534;BME280;53640;55.838;37.184;2023-06-26T09:52:19;98887.03;;;26.74;20.15
65534;BME280;53640;55.838;37.184;2023-06-26T09:54:46;98892.22;;;26.55;20.49
65534;BME280;53640;55.838;37.184;2023-06-26T09:57:16;98878.19;;;26.21;20.38
65534;BME280;53640;55.838;37.184;2023-06-26T09:59:44;98912.03;;;26.15;21.06
65534;BME280;53640;55.838;37.184;2023-06-26T10:02:11;98845.84;;;25.40;20.79
65534;BME280;53640;55.838;37.184;2023-06-26T10:04:38;98907.28;;;25.51;21.57
65534;BME280;53640;55.838;37.184;2023-06-26T10:07:10;98906.44;;;25.16;22.12
65534;BME280;53640;55.838;37.184;2023-06-26T10:09:44;98859.53;;;24.59;22.82
65534;BME280;53640;55.838;37.184;2023-06-26T10:12:27;98865.78;;;24.33;23.29
65534;BME280;53640;55.838;37.184;2023-06-26T10:14:55;98951.72;;;24.68;23.84
65534;BME280;53640;55.838;37.184;2023-06-26T10:17:25;98885.56;;;24.09;24.00
65534;BME280;53640;55.838;37.184;2023-06-26T10:19:56;98872.78;;;23.91;23.99
65534;BME280;53640;55.838;37.184;2023-06-26T10:22:27;98904.69;;;23.97;23.92
65534;BME280;53640;55.838;37.184;2023-06-26T10:24:57;98907.66;;;24.00;24.15
65534;BME280;53640;55.838;37.184;2023-06-26T10:27:28;98922.88;;;24.29;24.28
65534;BME280;53640;55.838;37.184;2023-06-26T10:30:03;98843.81;;;24.28;24.07
65534;BME280;53640;55.838;37.184;2023-06-26T10:32:32;98858.47;;;24.37;24.24
65534;BME280;53640;55.838;37.184;2023-06-26T10:34:59;98857.34;;;24.38;24.20
65534;BME280;53640;55.838;37.184;2023-06-26T10:37:48;98846.22;;;24.21;24.04
65534;BME280;53640;55.838;37.184;2023-06-26T10:40:21;98923.97;;;24.59;24.28
65534;BME280;53640;55.838;37.184;2023-06-26T10:42:48;98959.84;;;24.64;24.10
65534;BME280;53640;55.838;37.184;2023-06-26T10:45:28;98913.59;;;24.25;24.45
65534;BME280;53640;55.838;37.184;2023-06-26T10:47:57;98889.22;;;23.96;24.84
65534;BME280;53640;55.838;37.184;2023-06-26T10:50:27;98925.47;;;24.17;24.80
65534;BME280;53640;55.838;37.184;2023-06-26T10:53:16;98933.47;;;24.27;25.05
65534;BME280;53640;55.838;37.184;2023-06-26T10:56:04;98882.47;;;23.79;25.16
65534;BME280;53640;55.838;37.184;2023-06-26T11:01:26;98900.78;;;23.67;25.52
65534;BME280;53640;55.838;37.184;2023-06-26T11:06:32;98874.03;;;23.31;25.55
65534;BME280;53640;55.838;37.184;2023-06-26T11:09:11;98872.66;;;23.20;25.84
65534;BME280;53640;55.838;37.184;2023-06-26T11:14:26;98894.75;;;23.20;26.48
65534;BME280;53640;55.838;37.184;2023-06-26T11:16:56;98907.59;;;23.24;26.27
65534;BME280;53640;55.838;37.184;2023-06-26T11:19:27;98931.31;;;23.39;26.59
65534;BME280;53640;55.838;37.184;2023-06-26T11:21:59;98845.66;;;22.94;26.65
65534;BME280;53640;55.838;37.184;2023-06-26T11:24:27;98833.59;;;22.90;26.67
65534;BME280;53640;55.838;37.184;2023-06-26T11:27:00;98860.75;;;23.11;26.13
65534;BME280;53640;55.838;37.184;2023-06-26T11:29:27;98891.72;;;23.44;26.00
65534;BME280;53640;55.838;37.184;2023-06-26T11:31:59;98889.56;;;23.63;25.78
65534;BME280;53640;55.838;37.184;2023-06-26T11:34:30;98851.47;;;23.51;25.34
65534;BME280;53640;55.838;37.184;2023-06-26T11:36:59;98928.06;;;24.22;24.99
65534;BME280;53640;55.838;37.184;2023-06-26T11:39:30;98901.41;;;24.26;24.84
65534;BME280;53640;55.838;37.184;2023-06-26T11:41:57;98842.31;;;24.13;24.45
65534;BME280;53640;55.838;37.184;2023-06-26T11:44:23;98921.09;;;24.73;24.51
65534;BME280;53640;55.838;37.184;2023-06-26T11:46:57;98856.59;;;24.64;24.31
65534;BME280;53640;55.838;37.184;2023-06-26T11:49:24;98872.41;;;25.15;23.85
65534;BME280;53640;55.838;37.184;2023-06-26T11:51:52;98837.78;;;25.65;23.20
65534;BME280;53640;55.838;37.184;2023-06-26T11:54:27;98799.34;;;26.52;21.11
65534;BME280;53640;55.838;37.184;2023-06-26T11:56:58;98851.41;;;27.84;19.98
65534;BME280;53640;55.838;37.184;2023-06-26T11:59:37;98858.69;;;28.75;19.25
65534;BME280;53640;55.838;37.184;2023-06-26T12:02:10;98832.13;;;29.33;18.40
65534;BME280;53640;55.838;37.184;2023-06-26T12:04:41;98822.31;;;29.84;18.09
65534;BME280;53640;55.838;37.184;2023-06-26T12:07:09;98826.19;;;30.46;17.90
65534;BME280;53640;55.838;37.184;2023-06-26T12:09:41;98810.41;;;30.89;17.36
65534;BME280;53640;55.838;37.184;2023-06-26T12:12:17;98775.06;;;31.19;16.51
65534;BME280;53640;55.838;37.184;2023-06-26T12:14:44;98805.88;;;31.42;15.97
65534;BME280;53640;55.838;37.184;2023-06-26T12:17:12;98822.19;;;31.83;16.81
65534;BME280;53640;55.838;37.184;2023-06-26T12:19:45;98805.97;;;32.18;16.36
65534;BME280;53640;55.838;37.184;2023-06-26T12:22:18;98775.63;;;32.47;15.78
65534;BME280;53640;55.838;37.184;2023-06-26T12:24:46;98824.63;;;32.60;15.42
65534;BME280;53640;55.838;37.184;2023-06-26T12:27:15;98821.28;;;31.98;16.44
65534;BME280;53640;55.838;37.184;2023-06-26T12:29:52;98760.97;;;30.93;17.27
65534;BME280;53640;55.838;37.184;2023-06-26T12:32:24;98765.78;;;30.38;17.74
65534;BME280;53640;55.838;37.184;2023-06-26T12:34:57;98837.84;;;30.48;18.24
65534;BME280;53640;55.838;37.184;2023-06-26T12:37:24;98827.66;;;30.75;17.98
65534;BME280;53640;55.838;37.184;2023-06-26T12:42:27;98820.63;;;31.62;17.29
65534;BME280;53640;55.838;37.184;2023-06-26T12:45:18;98860.16;;;32.30;16.45
65534;BME280;53640;55.838;37.184;2023-06-26T12:47:46;98800.72;;;31.90;16.61
65534;BME280;53640;55.838;37.184;2023-06-26T12:50:13;98846.63;;;31.86;16.66
65534;BME280;53640;55.838;37.184;2023-06-26T12:52:40;98798.41;;;31.27;16.47
65534;BME280;53640;55.838;37.184;2023-06-26T12:55:09;98781.03;;;31.41;16.53
65534;BME280;53640;55.838;37.184;2023-06-26T12:57:38;98801.28;;;31.77;16.33
65534;BME280;53640;55.838;37.184;2023-06-26T13:00:09;98819.41;;;31.83;16.21
65534;BME280;53640;55.838;37.184;2023-06-26T13:02:36;98798.44;;;31.73;15.59
65534;BME280;53640;55.838;37.184;2023-06-26T13:05:04;98805.66;;;31.32;16.20
65534;BME280;53640;55.838;37.184;2023-06-26T13:07:36;98791.03;;;30.61;16.61
65534;BME280;53640;55.838;37.184;2023-06-26T13:10:02;98813.47;;;30.29;16.79